createdAt,value
2018-05-25T00:00:25.566Z,76.04
2018-05-25T00:01:25.584Z,76.52
2018-05-25T00:02:25.818Z,76.52
2018-05-25T00:03:25.626Z,76.42
2018-05-25T00:04:25.892Z,75.95
2018-05-25T00:05:26.171Z,76.9
2018-05-25T00:06:26.184Z,75.95
2018-05-25T00:07:25.990Z,76.42
2018-05-25T00:08:26.907Z,76.32
2018-05-25T00:09:26.752Z,76.52
2018-05-25T00:10:26.814Z,75.85
2018-05-25T00:11:27.271Z,76.42
2018-05-25T00:12:27.011Z,76.52
2018-05-25T00:13:27.501Z,76.32
2018-05-25T00:14:27.588Z,76.71
2018-05-25T00:15:27.993Z,76.81
2018-05-25T00:16:28.409Z,76.71
2018-05-25T00:17:28.821Z,76.62
2018-05-25T00:18:28.981Z,76.62
2018-05-25T00:19:29.154Z,76.62
2018-05-25T00:20:29.544Z,76.52
2018-05-25T00:21:30.227Z,76.62
2018-05-25T00:22:30.245Z,76.42
2018-05-25T00:23:31.045Z,76.9
2018-05-25T00:24:31.322Z,76.52
2018-05-25T00:25:30.426Z,76.62
2018-05-25T00:26:31.139Z,76.42
2018-05-25T00:27:30.855Z,76.81
2018-05-25T00:28:30.970Z,76.62
2018-05-25T00:29:31.445Z,76.62
2018-05-25T00:30:31.594Z,76.71
2018-05-25T00:31:31.590Z,77
2018-05-25T00:32:31.793Z,77.58
2018-05-25T00:33:31.812Z,77.38
2018-05-25T00:34:31.827Z,77.19
2018-05-25T00:35:31.937Z,77.09
2018-05-25T00:36:32.181Z,77.09
2018-05-25T00:37:31.883Z,77.67
2018-05-25T00:38:32.200Z,77.38
2018-05-25T00:39:32.313Z,77
2018-05-25T00:40:33.372Z,77
2018-05-25T00:41:32.978Z,76.9
2018-05-25T00:42:33.007Z,77.95
2018-05-25T00:43:33.250Z,77.86
2018-05-25T00:44:33.327Z,77.38
2018-05-25T00:45:33.044Z,78.34
2018-05-25T00:46:33.781Z,77.86
2018-05-25T00:47:34.444Z,77.58
2018-05-25T00:48:34.465Z,77.76
2018-05-25T00:49:33.641Z,77.95
2018-05-25T00:50:33.837Z,78.05
2018-05-25T00:51:34.251Z,78.34
2018-05-25T00:52:34.260Z,78.44
2018-05-25T00:53:34.610Z,78.72
2018-05-25T00:54:34.816Z,78.63
2018-05-25T00:55:34.959Z,78.63
2018-05-25T00:56:35.353Z,78.72
2018-05-25T00:57:35.536Z,78.82
2018-05-25T00:58:35.823Z,78.44
2018-05-25T00:59:35.868Z,78.63
2018-05-25T01:00:35.896Z,78.82
2018-05-25T01:01:36.055Z,78.72
2018-05-25T01:02:36.505Z,78.34
2018-05-25T01:03:36.584Z,78.72
2018-05-25T01:04:36.612Z,79.11
2018-05-25T01:05:36.616Z,79.11
2018-05-25T01:06:36.553Z,79.78
2018-05-25T01:07:37.247Z,79.78
2018-05-25T01:08:37.969Z,79.39
2018-05-25T01:09:37.833Z,79.59
2018-05-25T01:10:37.717Z,80.16
2018-05-25T01:11:38.243Z,79.68
2018-05-25T01:12:38.258Z,79.97
2018-05-25T01:13:38.276Z,80.07
2018-05-25T01:14:38.654Z,79.97
2018-05-25T01:15:38.689Z,80.22
2018-05-25T01:16:38.452Z,80.07
2018-05-25T01:17:38.873Z,79.59
2018-05-25T01:18:39.012Z,80.79
2018-05-25T01:19:39.022Z,80.7
2018-05-25T01:20:39.185Z,80.89
2018-05-25T01:21:39.426Z,80.99
2018-05-25T01:22:39.461Z,80.6
2018-05-25T01:23:39.605Z,80.7
2018-05-25T01:24:40.341Z,80.89
2018-05-25T01:25:40.469Z,80.79
2018-05-25T01:26:40.595Z,80.99
2018-05-25T01:27:40.364Z,81.75
2018-05-25T01:28:40.396Z,80.99
2018-05-25T01:29:40.938Z,81.27
2018-05-25T01:30:40.969Z,81.46
2018-05-25T01:31:40.734Z,81.56
2018-05-25T01:32:41.034Z,81.56
2018-05-25T01:33:41.197Z,81.85
2018-05-25T01:34:41.481Z,81.75
2018-05-25T01:35:41.660Z,81.66
2018-05-25T01:36:41.563Z,81.56
2018-05-25T01:37:41.879Z,81.37
2018-05-25T01:38:41.879Z,81.66
2018-05-25T01:39:42.058Z,81.46
2018-05-25T01:40:42.462Z,81.56
2018-05-25T01:41:42.319Z,81.95
2018-05-25T01:42:42.464Z,81.75
2018-05-25T01:43:42.780Z,81.85
2018-05-25T01:44:42.810Z,82.04
2018-05-25T01:45:42.561Z,82.04
2018-05-25T01:46:42.914Z,81.95
2018-05-25T01:47:42.690Z,81.95
2018-05-25T01:48:43.152Z,81.75
2018-05-25T01:49:42.842Z,82.04
2018-05-25T01:50:42.930Z,82.04
2018-05-25T01:51:43.190Z,82.19
2018-05-25T01:52:42.948Z,82.62
2018-05-25T01:53:43.470Z,82.48
2018-05-25T01:54:44.082Z,82.57
2018-05-25T01:55:43.987Z,82.32
2018-05-25T01:56:43.689Z,82.29
2018-05-25T01:57:44.150Z,82.62
2018-05-25T01:58:44.162Z,82.67
2018-05-25T01:59:44.610Z,83.25
2018-05-25T02:00:44.891Z,83.15
2018-05-25T02:01:44.384Z,83.15
2018-05-25T02:02:44.814Z,83.15
2018-05-25T02:03:44.749Z,83.44
2018-05-25T02:04:45.047Z,84.01
2018-05-25T02:05:45.713Z,83.92
2018-05-25T02:06:45.853Z,83.92
2018-05-25T02:07:45.896Z,83.34
2018-05-25T02:08:45.945Z,83.53
2018-05-25T02:09:45.843Z,83.44
2018-05-25T02:10:46.001Z,83.92
2018-05-25T02:11:46.074Z,84.11
2018-05-25T02:12:46.433Z,84.01
2018-05-25T02:13:46.201Z,84.2
2018-05-25T02:14:46.866Z,84.01
2018-05-25T02:15:46.900Z,84.11
2018-05-25T02:16:46.938Z,84.01
2018-05-25T02:17:47.090Z,84.11
2018-05-25T02:18:46.845Z,84.39
2018-05-25T02:19:47.240Z,84.3
2018-05-25T02:20:47.920Z,84.49
2018-05-25T02:21:47.970Z,84.58
2018-05-25T02:22:48.120Z,84.58
2018-05-25T02:23:48.535Z,84.97
2018-05-25T02:24:48.642Z,84.78
2018-05-25T02:25:48.631Z,84.88
2018-05-25T02:26:48.364Z,84.58
2018-05-25T02:27:48.909Z,84.3
2018-05-25T02:28:48.470Z,84.78
2018-05-25T02:29:48.734Z,84.3
2018-05-25T02:30:49.403Z,84.97
2018-05-25T02:31:49.371Z,84.74
2018-05-25T02:32:49.378Z,84.35
2018-05-25T02:33:49.542Z,84.68
2018-05-25T02:34:49.824Z,84.97
2018-05-25T02:35:49.867Z,84.78
2018-05-25T02:36:50.023Z,85.6
2018-05-25T02:37:50.258Z,85.21
2018-05-25T02:38:50.595Z,85.16
2018-05-25T02:39:50.460Z,84.83
2018-05-25T02:40:51.125Z,85.5
2018-05-25T02:41:51.545Z,84.97
2018-05-25T02:42:51.937Z,85.6
2018-05-25T02:43:52.087Z,85.41
2018-05-25T02:44:52.207Z,85.6
2018-05-25T02:45:52.631Z,85.98
2018-05-25T02:46:52.991Z,85.5
2018-05-25T02:47:53.132Z,85.69
2018-05-25T02:48:53.056Z,85.79
2018-05-25T02:49:52.801Z,85.98
2018-05-25T02:50:53.141Z,85.5
2018-05-25T02:51:53.566Z,85.69
2018-05-25T02:52:53.590Z,85.41
2018-05-25T02:53:53.609Z,86.08
2018-05-25T02:54:54.001Z,86.08
2018-05-25T02:55:54.028Z,86.17
2018-05-25T02:56:54.083Z,85.6
2018-05-25T02:57:54.062Z,85.6
2018-05-25T02:58:54.359Z,85.79
2018-05-25T02:59:54.390Z,85.88
2018-05-25T03:00:54.165Z,85.88
2018-05-25T03:01:54.906Z,86.08
2018-05-25T03:02:54.769Z,85.98
2018-05-25T03:03:55.207Z,86.27
2018-05-25T03:04:55.287Z,85.98
2018-05-25T03:05:55.751Z,85.69
2018-05-25T03:06:56.006Z,85.88
2018-05-25T03:07:56.056Z,85.79
2018-05-25T03:08:55.762Z,85.98
2018-05-25T03:09:56.439Z,86.27
2018-05-25T03:10:56.358Z,85.69
2018-05-25T03:11:56.849Z,85.79
2018-05-25T03:12:56.750Z,86.17
2018-05-25T03:13:57.209Z,85.98
2018-05-25T03:14:56.948Z,85.79
2018-05-25T03:15:57.253Z,86.08
2018-05-25T03:16:57.429Z,86.46
2018-05-25T03:17:57.398Z,86.36
2018-05-25T03:18:57.443Z,86.17
2018-05-25T03:19:57.470Z,86.36
2018-05-25T03:20:57.618Z,86.94
2018-05-25T03:21:57.650Z,86.65
2018-05-25T03:22:58.110Z,86.08
2018-05-25T03:23:58.094Z,86.46
2018-05-25T03:24:58.220Z,86.36
2018-05-25T03:25:58.535Z,86.17
2018-05-25T03:26:58.689Z,85.69
2018-05-25T03:27:58.734Z,86.17
2018-05-25T03:28:58.513Z,85.79
2018-05-25T03:29:58.797Z,85.69
2018-05-25T03:30:59.008Z,85.41
2018-05-25T03:31:59.318Z,86.36
2018-05-25T03:32:59.310Z,86.36
2018-05-25T03:33:59.517Z,86.46
2018-05-25T03:34:59.711Z,86.46
2018-05-25T03:35:59.744Z,86.74
2018-05-25T03:36:59.474Z,86.17
2018-05-25T03:37:59.786Z,86.36
2018-05-25T03:38:59.656Z,86.36
2018-05-25T03:40:00.646Z,86.55
2018-05-25T03:41:00.309Z,86.36
2018-05-25T03:42:00.798Z,86.36
2018-05-25T03:43:01.206Z,86.17
2018-05-25T03:44:01.431Z,85.69
2018-05-25T03:45:01.255Z,86.08
2018-05-25T03:46:01.486Z,85.98
2018-05-25T03:47:01.693Z,85.98
2018-05-25T03:48:01.457Z,85.69
2018-05-25T03:49:01.941Z,85.79
2018-05-25T03:50:02.070Z,86.17
2018-05-25T03:51:01.971Z,86.08
2018-05-25T03:52:02.613Z,86.08
2018-05-25T03:53:02.611Z,86.08
2018-05-25T03:54:02.638Z,85.88
2018-05-25T03:55:03.010Z,86.27
2018-05-25T03:56:02.809Z,85.79
2018-05-25T03:57:03.236Z,86.21
2018-05-25T03:58:03.426Z,86.08
2018-05-25T03:59:03.443Z,85.79
2018-05-25T04:00:22.894Z,85.98
2018-05-25T04:01:22.978Z,85.6
2018-05-25T04:02:23.005Z,85.88
2018-05-25T04:03:23.007Z,86.46
2018-05-25T04:04:23.286Z,86.17
2018-05-25T04:05:23.080Z,86.46
2018-05-25T04:06:23.306Z,86.84
2018-05-25T04:07:23.372Z,85.79
2018-05-25T04:08:23.391Z,85.98
2018-05-25T04:09:23.168Z,86.36
2018-05-25T04:10:23.568Z,85.88
2018-05-25T04:11:23.605Z,85.93
2018-05-25T04:12:24.022Z,86.12
2018-05-25T04:13:24.180Z,86.31
2018-05-25T04:14:24.163Z,85.74
2018-05-25T04:15:24.128Z,86.02
2018-05-25T04:16:24.296Z,84.88
2018-05-25T04:17:24.308Z,84.88
2018-05-25T04:18:24.447Z,84.34
2018-05-25T04:19:24.482Z,84.25
2018-05-25T04:20:24.887Z,83.86
2018-05-25T04:21:24.643Z,83.38
2018-05-25T04:22:25.330Z,82.94
2018-05-25T04:23:25.794Z,83.29
2018-05-25T04:24:25.993Z,83.33
2018-05-25T04:25:26.148Z,83.23
2018-05-25T04:26:25.865Z,83.33
2018-05-25T04:27:26.121Z,83.04
2018-05-25T04:28:25.968Z,82.85
2018-05-25T04:29:26.253Z,83.38
2018-05-25T04:30:26.698Z,83.67
2018-05-25T04:31:26.720Z,83.38
2018-05-25T04:32:26.734Z,83.29
2018-05-25T04:33:26.822Z,83.48
2018-05-25T04:34:26.541Z,83.38
2018-05-25T04:35:27.160Z,83.38
2018-05-25T04:36:26.863Z,83.29
2018-05-25T04:37:26.965Z,83.19
2018-05-25T04:38:26.940Z,82.9
2018-05-25T04:39:27.319Z,83.09
2018-05-25T04:40:27.209Z,83.09
2018-05-25T04:41:27.203Z,82.75
2018-05-25T04:42:27.051Z,82.46
2018-05-25T04:43:27.274Z,82.27
2018-05-25T04:44:27.400Z,82.27
2018-05-25T04:45:27.702Z,82.46
2018-05-25T04:46:27.863Z,82.08
2018-05-25T04:47:28.062Z,82.37
2018-05-25T04:48:28.470Z,81.41
2018-05-25T04:49:28.219Z,81.41
2018-05-25T04:50:28.343Z,81.51
2018-05-25T04:51:28.721Z,81.79
2018-05-25T04:52:28.865Z,81.79
2018-05-25T04:53:29.095Z,81.12
2018-05-25T04:54:29.214Z,81.51
2018-05-25T04:55:29.659Z,81.6
2018-05-25T04:56:29.781Z,81.41
2018-05-25T04:57:29.688Z,80.78
2018-05-25T04:58:30.080Z,81.22
2018-05-25T04:59:30.497Z,81.02
2018-05-25T05:00:30.484Z,81.16
2018-05-25T05:01:30.299Z,80.87
2018-05-25T05:02:31.025Z,81.07
2018-05-25T05:03:31.154Z,80.58
2018-05-25T05:04:31.096Z,80.68
2018-05-25T05:05:31.270Z,80.2
2018-05-25T05:06:31.553Z,79.72
2018-05-25T05:07:31.594Z,79.72
2018-05-25T05:08:31.626Z,79.44
2018-05-25T05:09:31.657Z,79.24
2018-05-25T05:10:31.680Z,79.14
2018-05-25T05:11:31.865Z,78.52
2018-05-25T05:12:31.760Z,78.32
2018-05-25T05:13:31.799Z,78.32
2018-05-25T05:14:31.826Z,78.03
2018-05-25T05:15:32.238Z,78.32
2018-05-25T05:16:32.279Z,78.13
2018-05-25T05:17:32.318Z,76.92
2018-05-25T05:18:32.709Z,76.09
2018-05-25T05:19:32.891Z,74.02
2018-05-25T05:20:32.914Z,73.86
2018-05-25T05:21:33.408Z,74.05
2018-05-25T05:22:33.848Z,73.28
2018-05-25T05:23:33.428Z,74.05
2018-05-25T05:24:33.469Z,73.28
2018-05-25T05:25:33.609Z,73.19
2018-05-25T05:26:33.646Z,71.49
2018-05-25T05:27:33.548Z,70.66
2018-05-25T05:28:34.079Z,70.18
2018-05-25T05:29:34.210Z,70.02
2018-05-25T05:30:34.317Z,70.31
2018-05-25T05:31:34.073Z,69.64
2018-05-25T05:32:34.240Z,69.64
2018-05-25T05:33:34.870Z,70.21
2018-05-25T05:34:34.865Z,70.31
2018-05-25T05:35:34.624Z,70.56
2018-05-25T05:36:35.359Z,71.78
2018-05-25T05:37:35.558Z,71.59
2018-05-25T05:38:35.737Z,71.59
2018-05-25T05:39:36.926Z,71.69
2018-05-25T05:40:36.518Z,71.4
2018-05-25T05:41:36.287Z,71.04
2018-05-25T05:42:36.718Z,70.86
2018-05-25T05:43:36.764Z,70.37
2018-05-25T05:44:36.791Z,70.09
2018-05-25T05:45:37.143Z,70.18
2018-05-25T05:46:37.262Z,70.37
2018-05-25T05:47:37.726Z,70.37
2018-05-25T05:48:37.925Z,70.37
2018-05-25T05:49:37.486Z,70.05
2018-05-25T05:50:37.980Z,70.43
2018-05-25T05:51:37.891Z,69.99
2018-05-25T05:52:38.018Z,69.22
2018-05-25T05:53:38.731Z,69.89
2018-05-25T05:54:38.664Z,69.99
2018-05-25T05:55:39.076Z,70.18
2018-05-25T05:56:39.716Z,69.79
2018-05-25T05:57:39.966Z,69.79
2018-05-25T05:58:39.531Z,68.93
2018-05-25T05:59:40.179Z,68.96
2018-05-25T06:00:40.098Z,68.48
2018-05-25T06:01:39.835Z,68.52
2018-05-25T06:02:40.368Z,67.26
2018-05-25T06:03:40.393Z,67.16
2018-05-25T06:04:40.777Z,67.55
2018-05-25T06:05:41.965Z,67.07
2018-05-25T06:06:41.253Z,66.24
2018-05-25T06:07:41.333Z,64.47
2018-05-25T06:08:41.276Z,63.79
2018-05-25T06:09:41.276Z,64.08
2018-05-25T06:10:41.970Z,64.92
2018-05-25T06:11:41.314Z,65.3
2018-05-25T06:12:41.456Z,64.82
2018-05-25T06:13:41.419Z,64.56
2018-05-25T06:14:41.501Z,63.89
2018-05-25T06:15:41.481Z,63.34
2018-05-25T06:16:41.999Z,62.31
2018-05-25T06:17:41.946Z,61.44
2018-05-25T06:18:41.929Z,60.44
2018-05-25T06:19:41.977Z,57.79
2018-05-25T06:20:42.157Z,56.29
2018-05-25T06:21:42.309Z,54.5
2018-05-25T06:22:42.345Z,53.97
2018-05-25T06:23:42.292Z,52.84
2018-05-25T06:24:42.619Z,52.06
2018-05-25T06:25:42.448Z,51.33
2018-05-25T06:26:43.033Z,51.17
2018-05-25T06:27:43.563Z,50.19
2018-05-25T06:28:43.345Z,49.8
2018-05-25T06:29:43.407Z,49.83
2018-05-25T06:30:43.321Z,49.17
2018-05-25T06:31:43.504Z,49.05
2018-05-25T06:32:43.750Z,48.8
2018-05-25T06:33:43.764Z,48.61
2018-05-25T06:34:43.902Z,48.68
2018-05-25T06:35:43.859Z,49.19
2018-05-25T06:36:43.989Z,48.32
2018-05-25T06:37:44.403Z,46.95
2018-05-25T06:38:44.444Z,46.61
2018-05-25T06:39:44.482Z,46.34
2018-05-25T06:40:44.637Z,46.26
2018-05-25T06:41:44.681Z,45.51
2018-05-25T06:42:44.443Z,45.23
2018-05-25T06:43:44.954Z,45.23
2018-05-25T06:44:45.251Z,44.35
2018-05-25T06:45:45.458Z,44.94
2018-05-25T06:46:46.418Z,44.65
2018-05-25T06:47:46.653Z,44.35
2018-05-25T06:48:46.754Z,43.89
2018-05-25T06:49:47.093Z,43.05
2018-05-25T06:50:47.414Z,43.05
2018-05-25T06:51:47.274Z,42.41
2018-05-25T06:52:47.456Z,42.02
2018-05-25T06:53:47.784Z,41.62
2018-05-25T06:54:47.902Z,41.96
2018-05-25T06:55:48.079Z,42.58
2018-05-25T06:56:48.478Z,43.15
2018-05-25T06:57:49.007Z,42.05
2018-05-25T06:58:49.044Z,43.05
2018-05-25T06:59:48.859Z,42.58
2018-05-25T07:00:49.296Z,42.17
2018-05-25T07:01:49.719Z,43.05
2018-05-25T07:02:49.805Z,41.99
2018-05-25T07:03:49.775Z,41.78
2018-05-25T07:04:49.819Z,41.52
2018-05-25T07:05:49.861Z,41.37
2018-05-25T07:06:50.283Z,39.64
2018-05-25T07:07:50.325Z,40.23
2018-05-25T07:08:50.365Z,40.06
2018-05-25T07:09:50.391Z,39.68
2018-05-25T07:10:50.551Z,38.74
2018-05-25T07:11:50.897Z,38.17
2018-05-25T07:12:51.302Z,38.26
2018-05-25T07:13:51.667Z,40.13
2018-05-25T07:14:52.723Z,42.06
2018-05-25T07:15:52.184Z,42.92
2018-05-25T07:16:52.192Z,42.19
2018-05-25T07:17:52.596Z,43.49
2018-05-25T07:18:52.761Z,42.71
2018-05-25T07:19:52.652Z,40.94
2018-05-25T07:20:53.213Z,41.33
2018-05-25T07:21:52.903Z,40.63
2018-05-25T07:22:53.382Z,40.45
2018-05-25T07:23:53.416Z,38.82
2018-05-25T07:24:53.552Z,39.5
2018-05-25T07:25:54.030Z,40.17
2018-05-25T07:26:54.595Z,40.33
2018-05-25T07:27:54.478Z,40.25
2018-05-25T07:28:54.991Z,40.13
2018-05-25T07:29:55.009Z,40.43
2018-05-25T07:30:54.795Z,40.35
2018-05-25T07:31:55.103Z,40.53
2018-05-25T07:32:55.458Z,40.9
2018-05-25T07:33:55.490Z,41.86
2018-05-25T07:34:55.535Z,40.21
2018-05-25T07:35:55.961Z,38.78
2018-05-25T07:36:56.022Z,39.5
2018-05-25T07:37:56.546Z,38.44
2018-05-25T07:38:56.530Z,38.92
2018-05-25T07:39:56.721Z,39.29
2018-05-25T07:40:57.060Z,38.68
2018-05-25T07:41:57.262Z,40.03
2018-05-25T07:42:57.330Z,39.8
2018-05-25T07:43:57.499Z,39.62
2018-05-25T07:44:57.554Z,39.54
2018-05-25T07:45:57.289Z,38.9
2018-05-25T07:46:57.364Z,39.56
2018-05-25T07:47:57.815Z,39.15
2018-05-25T07:48:58.073Z,38.98
2018-05-25T07:49:58.024Z,38.42
2018-05-25T07:50:58.311Z,38.54
2018-05-25T07:51:58.220Z,38.46
2018-05-25T07:52:58.558Z,36.41
2018-05-25T07:53:58.281Z,37.73
2018-05-25T07:54:58.627Z,36.23
2018-05-25T07:55:59.114Z,37.01
2018-05-25T07:56:59.147Z,36.84
2018-05-25T07:57:59.404Z,36.25
2018-05-25T07:58:59.862Z,36.07
2018-05-25T07:59:59.607Z,35.97
2018-05-25T08:00:59.947Z,36.45
2018-05-25T08:02:00.264Z,36.72
2018-05-25T08:03:00.223Z,36.25
2018-05-25T08:04:00.571Z,36.35
2018-05-25T08:05:00.502Z,36.04
2018-05-25T08:06:01.467Z,36.05
2018-05-25T08:07:01.117Z,36.35
2018-05-25T08:08:01.304Z,37.41
2018-05-25T08:09:01.737Z,36.69
2018-05-25T08:10:01.123Z,37.76
2018-05-25T08:11:01.581Z,38.58
2018-05-25T08:12:02.193Z,38.58
2018-05-25T08:13:02.153Z,38.03
2018-05-25T08:14:02.485Z,37.54
2018-05-25T08:15:02.911Z,38.05
2018-05-25T08:16:03.400Z,36.69
2018-05-25T08:17:03.584Z,35.86
2018-05-25T08:18:03.579Z,35.22
2018-05-25T08:19:04.122Z,35.04
2018-05-25T08:20:03.798Z,36.27
2018-05-25T08:21:03.842Z,36.23
2018-05-25T08:22:04.593Z,35.68
2018-05-25T08:23:04.425Z,35.36
2018-05-25T08:24:04.621Z,35.36
2018-05-25T08:25:04.426Z,35.44
2018-05-25T08:26:04.821Z,35.86
2018-05-25T08:27:05.152Z,34.86
2018-05-25T08:28:05.380Z,34.69
2018-05-25T08:29:05.666Z,35.52
2018-05-25T08:30:05.688Z,35.3
2018-05-25T08:31:05.735Z,34.89
2018-05-25T08:32:05.960Z,34.41
2018-05-25T08:33:06.076Z,34.61
2018-05-25T08:34:06.131Z,34.64
2018-05-25T08:35:06.937Z,34.2
2018-05-25T08:36:06.408Z,33.52
2018-05-25T08:37:07.094Z,33.34
2018-05-25T08:38:07.129Z,32.76
2018-05-25T08:39:06.885Z,33.92
2018-05-25T08:40:07.424Z,33.42
2018-05-25T08:41:07.450Z,32.93
2018-05-25T08:42:08.054Z,32.93
2018-05-25T08:43:07.980Z,33.8
2018-05-25T08:44:08.082Z,34.27
2018-05-25T08:45:08.144Z,34.17
2018-05-25T08:46:08.830Z,33.89
2018-05-25T08:47:08.569Z,33.98
2018-05-25T08:48:08.315Z,34.06
2018-05-25T08:49:08.384Z,33.58
2018-05-25T08:50:08.770Z,33.13
2018-05-25T08:51:09.058Z,33.07
2018-05-25T08:52:09.420Z,31.23
2018-05-25T08:53:08.815Z,31.24
2018-05-25T08:54:09.047Z,32.21
2018-05-25T08:55:09.206Z,32.95
2018-05-25T08:56:09.565Z,32.43
2018-05-25T08:57:09.169Z,33.69
2018-05-25T08:58:09.240Z,33.08
2018-05-25T08:59:09.369Z,33.65
2018-05-25T09:00:09.834Z,33.56
2018-05-25T09:01:09.380Z,34.15
2018-05-25T09:02:09.481Z,33.75
2018-05-25T09:03:09.515Z,33.01
2018-05-25T09:04:09.255Z,32.14
2018-05-25T09:05:10.604Z,32.81
2018-05-25T09:06:10.837Z,33.06
2018-05-25T09:07:10.233Z,33.56
2018-05-25T09:08:10.885Z,33.46
2018-05-25T09:09:10.851Z,33.25
2018-05-25T09:10:10.724Z,34.31
2018-05-25T09:11:10.987Z,34.25
2018-05-25T09:12:11.307Z,33.87
2018-05-25T09:13:11.331Z,34.15
2018-05-25T09:14:11.409Z,33.39
2018-05-25T09:15:12.503Z,33.59
2018-05-25T09:16:12.120Z,32.92
2018-05-25T09:17:12.371Z,32.8
2018-05-25T09:18:12.815Z,33.01
2018-05-25T09:19:13.118Z,33.03
2018-05-25T09:20:13.176Z,32.93
2018-05-25T09:21:13.213Z,33
2018-05-25T09:22:13.314Z,32.71
2018-05-25T09:23:13.015Z,32.34
2018-05-25T09:24:13.361Z,31.87
2018-05-25T09:25:13.111Z,31.39
2018-05-25T09:26:13.561Z,31.69
2018-05-25T09:27:13.516Z,31.77
2018-05-25T09:28:13.640Z,31.29
2018-05-25T09:29:13.314Z,31.69
2018-05-25T09:30:13.341Z,31.68
2018-05-25T09:31:13.494Z,31.41
2018-05-25T09:32:13.872Z,31.21
2018-05-25T09:33:14.070Z,31.1
2018-05-25T09:34:14.650Z,31.79
2018-05-25T09:35:14.611Z,31.77
2018-05-25T09:36:14.438Z,32.24
2018-05-25T09:37:14.708Z,31.93
2018-05-25T09:38:15.826Z,32.12
2018-05-25T09:39:15.323Z,31.94
2018-05-25T09:40:15.365Z,32.43
2018-05-25T09:41:15.682Z,32.32
2018-05-25T09:42:15.601Z,32.1
2018-05-25T09:43:15.836Z,32.1
2018-05-25T09:44:16.264Z,33.54
2018-05-25T09:45:16.322Z,34
2018-05-25T09:46:16.353Z,34.48
2018-05-25T09:47:16.609Z,33.53
2018-05-25T09:48:16.463Z,32.84
2018-05-25T09:49:17.080Z,32.39
2018-05-25T09:50:17.724Z,31.73
2018-05-25T09:51:17.713Z,31.45
2018-05-25T09:52:18.303Z,30.87
2018-05-25T09:53:18.259Z,31.16
2018-05-25T09:54:18.856Z,30.41
2018-05-25T09:55:18.613Z,31.71
2018-05-25T09:56:19.364Z,30.8
2018-05-25T09:57:18.885Z,31.2
2018-05-25T09:58:18.529Z,33
2018-05-25T09:59:19.277Z,34.58
2018-05-25T10:00:24.679Z,34.46
2018-05-25T10:01:24.966Z,34.27
2018-05-25T10:02:24.708Z,34.56
2018-05-25T10:03:25.137Z,34.51
2018-05-25T10:04:25.684Z,34.61
2018-05-25T10:05:25.101Z,34.63
2018-05-25T10:06:25.702Z,34.82
2018-05-25T10:07:25.628Z,35.28
2018-05-25T10:08:25.980Z,35.34
2018-05-25T10:09:25.986Z,34.87
2018-05-25T10:10:25.815Z,34.59
2018-05-25T10:11:25.921Z,35.18
2018-05-25T10:12:25.588Z,34.7
2018-05-25T10:13:25.925Z,34.34
2018-05-25T10:14:25.913Z,34.17
2018-05-25T10:15:26.210Z,33.97
2018-05-25T10:16:26.490Z,34.48
2018-05-25T10:17:26.060Z,35.41
2018-05-25T10:18:26.085Z,36.7
2018-05-25T10:19:26.149Z,38.29
2018-05-25T10:20:26.363Z,37.41
2018-05-25T10:21:26.666Z,37.52
2018-05-25T10:22:26.712Z,36.47
2018-05-25T10:23:26.751Z,35.83
2018-05-25T10:24:26.804Z,34.63
2018-05-25T10:25:26.840Z,34.27
2018-05-25T10:26:27.029Z,33.41
2018-05-25T10:27:27.073Z,34
2018-05-25T10:28:27.398Z,33.97
2018-05-25T10:29:27.591Z,34.08
2018-05-25T10:30:28.085Z,33.42
2018-05-25T10:31:28.289Z,32.26
2018-05-25T10:32:28.595Z,32.64
2018-05-25T10:33:28.637Z,32.18
2018-05-25T10:34:28.675Z,32.68
2018-05-25T10:35:29.114Z,32.68
2018-05-25T10:36:29.295Z,34.41
2018-05-25T10:37:29.340Z,36.47
2018-05-25T10:38:29.380Z,38.33
2018-05-25T10:39:29.422Z,40.29
2018-05-25T10:40:29.645Z,41.99
2018-05-25T10:41:30.114Z,42.2
2018-05-25T10:42:30.339Z,40.68
2018-05-25T10:43:30.577Z,39.57
2018-05-25T10:44:30.590Z,37.37
2018-05-25T10:45:30.400Z,36.35
2018-05-25T10:46:31.010Z,34.83
2018-05-25T10:47:31.042Z,33.82
2018-05-25T10:48:31.459Z,34.54
2018-05-25T10:49:31.129Z,33.01
2018-05-25T10:50:31.464Z,32.28
2018-05-25T10:51:31.534Z,32.04
2018-05-25T10:52:31.532Z,32.22
2018-05-25T10:53:31.578Z,34.81
2018-05-25T10:54:31.735Z,36.26
2018-05-25T10:55:31.373Z,37.84
2018-05-25T10:56:31.836Z,36.08
2018-05-25T10:57:32.117Z,35.03
2018-05-25T10:58:31.796Z,34.47
2018-05-25T10:59:31.823Z,33.72
2018-05-25T11:00:31.696Z,34.2
2018-05-25T11:01:32.068Z,34.01
2018-05-25T11:02:32.100Z,33.74
2018-05-25T11:03:32.386Z,33.25
2018-05-25T11:04:32.183Z,32.01
2018-05-25T11:05:32.466Z,32.06
2018-05-25T11:06:33.382Z,31.23
2018-05-25T11:07:33.149Z,31.15
2018-05-25T11:08:33.889Z,31.67
2018-05-25T11:09:33.620Z,32.57
2018-05-25T11:10:33.706Z,33.98
2018-05-25T11:11:34.117Z,34.51
2018-05-25T11:12:34.628Z,35
2018-05-25T11:13:34.856Z,36.32
2018-05-25T11:14:34.902Z,36.08
2018-05-25T11:15:34.597Z,35.23
2018-05-25T11:16:34.998Z,34.78
2018-05-25T11:17:35.089Z,36.21
2018-05-25T11:18:34.862Z,38.1
2018-05-25T11:19:35.302Z,39.67
2018-05-25T11:20:35.060Z,39.04
2018-05-25T11:21:35.875Z,38.01
2018-05-25T11:22:35.430Z,37.26
2018-05-25T11:23:35.752Z,35.96
2018-05-25T11:24:35.803Z,36.27
2018-05-25T11:25:35.973Z,37.21
2018-05-25T11:26:36.362Z,37.12
2018-05-25T11:27:36.424Z,37.75
2018-05-25T11:28:36.522Z,38.98
2018-05-25T11:29:36.913Z,39.82
2018-05-25T11:30:36.961Z,41.05
2018-05-25T11:31:37.073Z,41.6
2018-05-25T11:32:36.863Z,42.65
2018-05-25T11:33:37.255Z,42.72
2018-05-25T11:34:37.010Z,43.48
2018-05-25T11:35:37.361Z,45.04
2018-05-25T11:36:37.869Z,44.45
2018-05-25T11:37:38.209Z,44.35
2018-05-25T11:38:38.139Z,44.33
2018-05-25T11:39:38.325Z,44.72
2018-05-25T11:40:38.669Z,45.09
2018-05-25T11:41:38.799Z,45.09
2018-05-25T11:42:38.738Z,45.38
2018-05-25T11:43:39.608Z,45.28
2018-05-25T11:44:38.501Z,45.17
2018-05-25T11:45:38.549Z,45.45
2018-05-25T11:46:39.063Z,46.04
2018-05-25T11:47:38.947Z,45.84
2018-05-25T11:48:39.337Z,46.04
2018-05-25T11:49:39.368Z,46.23
2018-05-25T11:50:39.782Z,46.14
2018-05-25T11:51:40.254Z,46.04
2018-05-25T11:52:40.294Z,46.04
2018-05-25T11:53:40.396Z,46.52
2018-05-25T11:54:40.404Z,46.14
2018-05-25T11:55:40.400Z,45.84
2018-05-25T11:56:40.445Z,46.33
2018-05-25T11:57:40.524Z,45.84
2018-05-25T11:58:40.520Z,46.33
2018-05-25T11:59:40.641Z,45.55
2018-05-25T12:00:41.206Z,45.94
2018-05-25T12:01:41.169Z,45.36
2018-05-25T12:02:40.919Z,45.48
2018-05-25T12:03:41.541Z,45.77
2018-05-25T12:04:41.778Z,45.87
2018-05-25T12:05:41.880Z,45.77
2018-05-25T12:06:41.788Z,45.38
2018-05-25T12:07:41.914Z,45.18
2018-05-25T12:08:41.564Z,44.99
2018-05-25T12:09:41.972Z,45.38
2018-05-25T12:10:42.163Z,44.99
2018-05-25T12:11:42.493Z,45.09
2018-05-25T12:12:42.670Z,45.18
2018-05-25T12:13:42.443Z,45.4
2018-05-25T12:14:42.823Z,44.72
2018-05-25T12:15:43.125Z,44.92
2018-05-25T12:16:43.356Z,44.99
2018-05-25T12:17:43.436Z,44.89
2018-05-25T12:18:43.428Z,45.09
2018-05-25T12:19:43.573Z,45.18
2018-05-25T12:20:43.917Z,44.31
2018-05-25T12:21:43.954Z,44.79
2018-05-25T12:22:44.337Z,44.89
2018-05-25T12:23:44.968Z,45.09
2018-05-25T12:24:44.980Z,44.7
2018-05-25T12:25:45.172Z,45.17
2018-05-25T12:26:45.256Z,44.87
2018-05-25T12:27:45.388Z,45.24
2018-05-25T12:28:45.818Z,45.14
2018-05-25T12:29:46.034Z,45.34
2018-05-25T12:30:46.492Z,45.82
2018-05-25T12:31:46.330Z,45.82
2018-05-25T12:32:47.009Z,45.53
2018-05-25T12:33:47.182Z,46.19
2018-05-25T12:34:48.003Z,45.34
2018-05-25T12:35:48.373Z,46.21
2018-05-25T12:36:48.320Z,45.17
2018-05-25T12:37:47.805Z,45.36
2018-05-25T12:38:48.084Z,45.45
2018-05-25T12:39:48.141Z,45.45
2018-05-25T12:40:47.881Z,45.45
2018-05-25T12:41:48.576Z,45.45
2018-05-25T12:42:48.195Z,45.07
2018-05-25T12:43:48.222Z,44.95
2018-05-25T12:44:48.587Z,45.34
2018-05-25T12:45:48.626Z,45.24
2018-05-25T12:46:48.522Z,45.24
2018-05-25T12:47:48.938Z,45.26
2018-05-25T12:48:48.598Z,45.26
2018-05-25T12:49:48.662Z,46.04
2018-05-25T12:50:48.945Z,44.97
2018-05-25T12:51:49.025Z,44.97
2018-05-25T12:52:49.424Z,45.45
2018-05-25T12:53:49.765Z,45.28
2018-05-25T12:54:49.923Z,44.99
2018-05-25T12:55:49.901Z,44.99
2018-05-25T12:56:50.360Z,44.6
2018-05-25T12:57:50.054Z,44.79